sensor_id;sensor_type;location;lat;lon;timestamp;temperature;humidity
1524;DHT22;755;53.658;10.118;2023-08-24T00:01:17;18.80;99.90
1524;DHT22;755;53.658;10.118;2023-08-24T00:11:33;18.70;99.90
1524;DHT22;755;53.658;10.118;2023-08-24T00:21:35;18.70;99.90
1524;DHT22;755;53.658;10.118;2023-08-24T00:31:38;18.50;99.90
1524;DHT22;755;53.658;10.118;2023-08-24T00:41:40;18.20;99.90
1524;DHT22;755;53.658;10.118;2023-08-24T00:51:44;18.10;99.90
1524;DHT22;755;53.658;10.118;2023-08-24T01:01:47;18.10;99.90
1524;DHT22;755;53.658;10.118;2023-08-24T01:11:58;18.00;99.90
1524;DHT22;755;53.658;10.118;2023-08-24T01:22:08;18.10;99.90
1524;DHT22;755;53.658;10.118;2023-08-24T01:32:18;18.00;99.90
1524;DHT22;755;53.658;10.118;2023-08-24T01:42:22;17.80;99.90
1524;DHT22;755;53.658;10.118;2023-08-24T01:52:29;17.70;99.90
1524;DHT22;755;53.658;10.118;2023-08-24T02:02:31;17.50;99.90
1524;DHT22;755;53.658;10.118;2023-08-24T02:12:35;17.40;99.90
1524;DHT22;755;53.658;10.118;2023-08-24T02:22:36;17.00;99.90
1524;DHT22;755;53.658;10.118;2023-08-24T02:32:40;17.00;99.90
1524;DHT22;755;53.658;10.118;2023-08-24T02:42:42;16.70;99.90
1524;DHT22;755;53.658;10.118;2023-08-24T02:52:45;16.60;99.90
1524;DHT22;755;53.658;10.118;2023-08-24T03:02:47;16.50;99.90
1524;DHT22;755;53.658;10.118;2023-08-24T03:12:51;16.50;99.90
1524;DHT22;755;53.658;10.118;2023-08-24T03:22:52;16.40;99.90
1524;DHT22;755;53.658;10.118;2023-08-24T03:32:56;16.20;99.90
1524;DHT22;755;53.658;10.118;2023-08-24T03:42:58;16.20;99.90
1524;DHT22;755;53.658;10.118;2023-08-24T03:53:02;16.10;99.90
1524;DHT22;755;53.658;10.118;2023-08-24T04:03:05;16.00;99.90
1524;DHT22;755;53.658;10.118;2023-08-24T04:13:08;15.90;99.90
1524;DHT22;755;53.658;10.118;2023-08-24T04:23:13;15.80;99.90
1524;DHT22;755;53.658;10.118;2023-08-24T04:33:16;15.60;99.90
1524;DHT22;755;53.658;10.118;2023-08-24T04:43:19;15.50;99.90
1524;DHT22;755;53.658;10.118;2023-08-24T04:53:24;15.50;99.90
1524;DHT22;755;53.658;10.118;2023-08-24T05:03:26;15.50;99.90
1524;DHT22;755;53.658;10.118;2023-08-24T05:13:30;15.40;99.90
1524;DHT22;755;53.658;10.118;2023-08-24T05:24:00;15.30;99.90
1524;DHT22;755;53.658;10.118;2023-08-24T05:34:06;15.60;99.90
1524;DHT22;755;53.658;10.118;2023-08-24T05:44:08;15.70;99.90
1524;DHT22;755;53.658;10.118;2023-08-24T05:54:12;15.90;99.90
1524;DHT22;755;53.658;10.118;2023-08-24T06:04:14;16.10;99.90
1524;DHT22;755;53.658;10.118;2023-08-24T06:14:17;16.40;99.90
1524;DHT22;755;53.658;10.118;2023-08-24T06:24:19;16.50;99.90
1524;DHT22;755;53.658;10.118;2023-08-24T06:34:22;16.70;99.90
1524;DHT22;755;53.658;10.118;2023-08-24T06:44:25;16.90;99.90
1524;DHT22;755;53.658;10.118;2023-08-24T06:54:28;17.10;99.90
1524;DHT22;755;53.658;10.118;2023-08-24T07:04:30;17.40;99.90
1524;DHT22;755;53.658;10.118;2023-08-24T07:14:33;17.50;99.90
1524;DHT22;755;53.658;10.118;2023-08-24T07:24:35;17.70;99.90
1524;DHT22;755;53.658;10.118;2023-08-24T07:34:38;18.20;99.90
1524;DHT22;755;53.658;10.118;2023-08-24T07:44:40;18.40;99.90
1524;DHT22;755;53.658;10.118;2023-08-24T07:54:43;18.70;99.90
1524;DHT22;755;53.658;10.118;2023-08-24T08:04:46;19.00;78.00
1524;DHT22;755;53.658;10.118;2023-08-24T08:14:50;19.20;1.00
1524;DHT22;755;53.658;10.118;2023-08-24T08:25:15;20.50;1.00
1524;DHT22;755;53.658;10.118;2023-08-24T08:35:21;21.00;1.00
1524;DHT22;755;53.658;10.118;2023-08-24T08:45:42;21.20;1.00
1524;DHT22;755;53.658;10.118;2023-08-24T08:55:46;22.10;1.00
1524;DHT22;755;53.658;10.118;2023-08-24T09:05:49;22.60;99.90
1524;DHT22;755;53.658;10.118;2023-08-24T09:15:53;23.20;1.00
1524;DHT22;755;53.658;10.118;2023-08-24T09:25:54;23.50;99.90
1524;DHT22;755;53.658;10.118;2023-08-24T09:46:45;24.50;99.90
1524;DHT22;755;53.658;10.118;2023-08-24T09:56:48;24.20;99.90
1524;DHT22;755;53.658;10.118;2023-08-24T10:07:15;24.20;99.90
1524;DHT22;755;53.658;10.118;2023-08-24T10:17:22;25.20;1.00
1524;DHT22;755;53.658;10.118;2023-08-24T10:38:41;25.50;99.90
1524;DHT22;755;53.658;10.118;2023-08-24T10:49:00;24.50;1.00
1524;DHT22;755;53.658;10.118;2023-08-24T10:59:14;23.90;99.90
1524;DHT22;755;53.658;10.118;2023-08-24T11:09:17;24.40;1.00
1524;DHT22;755;53.658;10.118;2023-08-24T11:19:21;24.00;1.00
1524;DHT22;755;53.658;10.118;2023-08-24T11:29:25;24.20;1.00
1524;DHT22;755;53.658;10.118;2023-08-24T11:39:38;23.90;99.90
1524;DHT22;755;53.658;10.118;2023-08-24T11:49:47;24.00;1.00
1524;DHT22;755;53.658;10.118;2023-08-24T11:59:51;24.60;99.90
1524;DHT22;755;53.658;10.118;2023-08-24T12:09:53;24.60;1.00
1524;DHT22;755;53.658;10.118;2023-08-24T12:19:59;24.90;1.00
1524;DHT22;755;53.658;10.118;2023-08-24T12:30:02;25.00;99.90
1524;DHT22;755;53.658;10.118;2023-08-24T12:40:07;24.90;99.90
1524;DHT22;755;53.658;10.118;2023-08-24T12:50:09;24.90;1.00
1524;DHT22;755;53.658;10.118;2023-08-24T13:00:14;24.90;1.00
1524;DHT22;755;53.658;10.118;2023-08-24T13:10:16;24.70;1.00
1524;DHT22;755;53.658;10.118;2023-08-24T13:20:20;25.00;1.00
1524;DHT22;755;53.658;10.118;2023-08-24T13:30:22;25.60;99.90
1524;DHT22;755;53.658;10.118;2023-08-24T13:40:42;25.20;99.90
1524;DHT22;755;53.658;10.118;2023-08-24T13:50:49;25.50;99.90
1524;DHT22;755;53.658;10.118;2023-08-24T14:00:57;25.00;99.90
1524;DHT22;755;53.658;10.118;2023-08-24T14:10:59;25.20;1.00
1524;DHT22;755;53.658;10.118;2023-08-24T14:21:03;25.40;1.00
1524;DHT22;755;53.658;10.118;2023-08-24T14:31:05;24.90;1.00
1524;DHT22;755;53.658;10.118;2023-08-24T14:41:09;24.70;1.00
1524;DHT22;755;53.658;10.118;2023-08-24T14:51:11;24.60;99.90
1524;DHT22;755;53.658;10.118;2023-08-24T15:01:14;24.50;14.40
1524;DHT22;755;53.658;10.118;2023-08-24T15:11:18;24.50;85.10
1524;DHT22;755;53.658;10.118;2023-08-24T15:21:21;24.60;99.90
1524;DHT22;755;53.658;10.118;2023-08-24T15:31:23;24.50;1.00
1524;DHT22;755;53.658;10.118;2023-08-24T15:41:26;24.40;99.90
1524;DHT22;755;53.658;10.118;2023-08-24T15:51:28;24.40;1.00
1524;DHT22;755;53.658;10.118;2023-08-24T16:01:32;24.20;99.90
1524;DHT22;755;53.658;10.118;2023-08-24T16:11:34;24.10;99.90
1524;DHT22;755;53.658;10.118;2023-08-24T16:21:37;23.90;99.90
1524;DHT22;755;53.658;10.118;2023-08-24T16:31:39;23.50;1.00
1524;DHT22;755;53.658;10.118;2023-08-24T16:41:42;23.50;1.00
1524;DHT22;755;53.658;10.118;2023-08-24T16:51:44;23.50;99.90
1524;DHT22;755;53.658;10.118;2023-08-24T17:01:47;23.50;1.00
1524;DHT22;755;53.658;10.118;2023-08-24T17:11:49;23.00;1.00
1524;DHT22;755;53.658;10.118;2023-08-24T17:21:52;23.10;1.00
1524;DHT22;755;53.658;10.118;2023-08-24T17:31:54;23.00;1.00
1524;DHT22;755;53.658;10.118;2023-08-24T17:41:57;22.80;1.00
1524;DHT22;755;53.658;10.118;2023-08-24T17:51:59;22.70;99.90
1524;DHT22;755;53.658;10.118;2023-08-24T18:02:03;22.70;1.00
1524;DHT22;755;53.658;10.118;2023-08-24T18:12:05;22.60;1.00
1524;DHT22;755;53.658;10.118;2023-08-24T18:22:09;22.40;1.00
1524;DHT22;755;53.658;10.118;2023-08-24T18:32:11;22.40;1.00
1524;DHT22;755;53.658;10.118;2023-08-24T18:42:14;22.20;92.80
1524;DHT22;755;53.658;10.118;2023-08-24T18:52:16;22.00;1.00
1524;DHT22;755;53.658;10.118;2023-08-24T19:02:19;21.90;98.20
1524;DHT22;755;53.658;10.118;2023-08-24T19:12:21;21.80;1.00
1524;DHT22;755;53.658;10.118;2023-08-24T19:22:27;21.90;99.90
1524;DHT22;755;53.658;10.118;2023-08-24T19:32:29;21.80;99.90
1524;DHT22;755;53.658;10.118;2023-08-24T19:42:32;21.70;1.00
1524;DHT22;755;53.658;10.118;2023-08-24T19:52:34;21.70;1.00
1524;DHT22;755;53.658;10.118;2023-08-24T20:02:44;21.60;1.00
1524;DHT22;755;53.658;10.118;2023-08-24T20:12:46;21.50;61.50
1524;DHT22;755;53.658;10.118;2023-08-24T20:22:49;21.20;99.90
1524;DHT22;755;53.658;10.118;2023-08-24T20:32:53;21.30;99.90
1524;DHT22;755;53.658;10.118;2023-08-24T20:42:56;21.10;99.90
1524;DHT22;755;53.658;10.118;2023-08-24T20:52:58;21.20;99.90
1524;DHT22;755;53.658;10.118;2023-08-24T21:03:03;20.80;99.90
1524;DHT22;755;53.658;10.118;2023-08-24T21:13:05;20.90;99.90
1524;DHT22;755;53.658;10.118;2023-08-24T21:23:08;21.00;99.90
1524;DHT22;755;53.658;10.118;2023-08-24T21:33:10;20.80;99.90
1524;DHT22;755;53.658;10.118;2023-08-24T21:43:14;20.10;99.90
1524;DHT22;755;53.658;10.118;2023-08-24T21:53:15;20.00;99.90
1524;DHT22;755;53.658;10.118;2023-08-24T22:03:19;19.60;99.90
1524;DHT22;755;53.658;10.118;2023-08-24T22:13:21;19.70;99.90
1524;DHT22;755;53.658;10.118;2023-08-24T22:23:25;19.60;99.90
1524;DHT22;755;53.658;10.118;2023-08-24T22:33:26;19.30;99.90
1524;DHT22;755;53.658;10.118;2023-08-24T22:43:33;19.00;99.90
1524;DHT22;755;53.658;10.118;2023-08-24T22:53:35;18.90;99.90
1524;DHT22;755;53.658;10.118;2023-08-24T23:03:39;19.00;99.90
1524;DHT22;755;53.658;10.118;2023-08-24T23:13:40;18.70;99.90
1524;DHT22;755;53.658;10.118;2023-08-24T23:23:44;18.70;99.90
1524;DHT22;755;53.658;10.118;2023-08-24T23:33:46;18.60;99.90
1524;DHT22;755;53.658;10.118;2023-08-24T23:43:49;18.50;99.90
1524;DHT22;755;53.658;10.118;2023-08-24T23:53:51;18.40;99.90
